Аэропорт: Борисполь. Киев

ICAO: UKBB

METAR:
2019/01/21 23:00
UKBB 212300Z 23002MPS CAVOK M11/M13 Q1021 R36R/811045 R36L/811095 NOSIG
METAR:
2019/01/21 18:51
TAF COR TAF COR UKBB 211749Z 2118/2218 28003G08MPS 6000 BKN015 
      TEMPO 2118/2207 VRB01MPS 1600 BR SCT003 BKN006 PROB40 
      TEMPO 2118/2207 0400 FZFG VV002 
      BECMG 2207/2208 22003G08MPS